ADDS METAR Data INFO
IDs: Format: Raw Decoded Include TAF

Data at: 1409 UTC 12 Dec 2017

KBGM 121353Z 18010KT 160V220 7SM OVC011 00/M02 A2946 RMK AO2 SNE02 SLP991 P0000 T00001017
KBGM 121351Z 18008KT 7SM OVC011 M01/M02 A2946 RMK AO2 SNE02 P0000
KBGM 121300Z 17008KT 3SM -SN BR BKN008 OVC012 M01/M02 A2947 RMK AO2 P0000 T10111017
KBGM 121253Z 17008KT 1 3/4SM -SN BR OVC008 M01/M02 A2947 RMK AO2 SNB20 SLP996 P0002 T10111017
KBGM 121231Z 17011KT 1 3/4SM -SN BR OVC009 M01/M02 A2948 RMK AO2 SNB20 CIG 007V014 P0000 T10111017
KBGM 121153Z 16009KT 6SM BR OVC009 M01/M02 A2949 RMK AO2 SNE46 CIG 006V013 SLP003 P0001 60003 70003 T10111022 11006 21017 56015
KBGM 121140Z 16008KT 3SM -SN BR BKN009 OVC013 M02/M02 A2949 RMK AO2 P0001 T10171022
KBGM 121129Z 16010KT 1 1/4SM -SN BR BKN009 OVC013 M02/M02 A2949 RMK AO2 P0001 T10171022
KBGM 121122Z 16011G17KT 1 3/4SM -SN BR OVC010 M02/M03 A2949 RMK AO2 P0000 T10171028
KBGM 121118Z 16012G18KT 2 1/2SM -SN BR BKN008 OVC012 M02/M03 A2949 RMK AO2 P0000 T10171028
KBGM 121053Z AUTO 16011KT 4SM -SN BR BKN009 OVC014 M02/M03 A2950 RMK AO2 SLP006 P0002 T10171028
KBGM 121043Z AUTO 15011KT 3SM -SN BR SCT006 OVC012 M02/M03 A2950 RMK AO2 P0002 T10171028
KBGM 121013Z AUTO 16011KT 1SM -SN BR FEW009 OVC012 M02/M03 A2952 RMK AO2 P0001 T10171028
KBGM 121003Z AUTO 17009KT 1 1/2SM -SN BR SCT010 OVC018 M02/M03 A2953 RMK AO2 P0000 T10171033
KBGM 120953Z AUTO 16010G20KT 2 1/2SM -SN OVC018 M01/M04 A2953 RMK AO2 SNB09 SLP019 P0000 T10111039
KBGM 120935Z AUTO 17010KT 2SM -SN OVC019 M01/M04 A2955 RMK AO2 SNB09 P0000 T10111044
KBGM 120901Z AUTO 16011KT 10SM BKN027 OVC050 M01/M06 A2958 RMK AO2 T10061056
KBGM 120853Z AUTO 17010KT 10SM BKN031 OVC050 M01/M06 A2958 RMK AO2 SLP035 T10061056 58033
KBGM 120753Z AUTO 16008G17KT 10SM OVC060 M01/M06 A2962 RMK AO2 SLP048 T10111061
KBGM 120653Z AUTO 16009G16KT 10SM OVC055 M01/M07 A2965 RMK AO2 SLP059 T10111067
KBGM 120553Z AUTO 16009KT 10SM OVC060 M02/M07 A2968 RMK AO2 PRESFR SLP070 60000 T10171067 11017 21033 58036
KBGM 120453Z AUTO 15011KT 10SM OVC055 M02/M07 A2972 RMK AO2 SNE00 SLP084 P0000 T10221072 410171050
KBGM 120353Z 16008KT 6SM -SN OVC046 M03/M07 A2976 RMK AO2 SNB37 SLP098 P0000 T10281072
KBGM 120253Z 15009KT 10SM OVC044 M03/M08 A2980 RMK AO2 SLP109 60000 T10281078 58018
KBGM 120153Z 16007KT 10SM OVC050 M03/M07 A2982 RMK AO2 SNB0054E04 SLP120 P0000 T10281072
KBGM 120053Z 16005KT 10SM BKN060 OVC080 M03/M07 A2984 RMK AO2 SLP125 T10281067
KBGM 112353Z 14004KT 10SM FEW034 OVC100 M03/M07 A2985 RMK AO2 SLP131 T10331067 11017 21033 58018
KBGM 112253Z 18003KT 10SM OVC033 M03/M07 A2988 RMK AO2 SLP141 T10281067
KBGM 112153Z 00000KT 10SM OVC034 M03/M07 A2988 RMK AO2 SLP140 T10281072
KBGM 112053Z 19005KT 10SM OVC034 M03/M07 A2991 RMK AO2 SLP148 T10281072 50004
KBGM 111953Z 23006KT 10SM FEW029 OVC036 M02/M08 A2991 RMK AO2 SLP148 T10221078
KBGM 111853Z 25007KT 10SM FEW030 OVC036 M02/M08 A2990 RMK AO2 SLP146 T10221083
KBGM 111753Z 27006KT 10SM FEW030 OVC039 M02/M08 A2990 RMK AO2 SLP143 60000 T10221083 11022 21044 58014
KBGM 111700Z 30008KT 10SM FEW025 SCT035 OVC042 M02/M08 A2992 RMK AO2 T10221083
KBGM 111653Z 29009G17KT 10SM SCT023 BKN027 OVC042 M02/M08 A2992 RMK AO2 SLP151 T10221078
KBGM 111553Z 29010KT 10SM BKN016 BKN023 OVC050 M03/M07 A2994 RMK AO2 SNE06B37E44 SLP159 P0000 T10281067
KBGM 111527Z 28008KT 10SM BKN017 BKN032 OVC050 M03/M06 A2994 RMK AO2 SNE06 P0000 T10281056
KBGM 111453Z 27009KT 5SM -SN SCT013 BKN032 OVC050 M03/M06 A2994 RMK AO2 SNB1355 SLP159 P0000 60000 T10331061 53014
KBGM 111415Z 26009KT 5SM -SN BR BKN013 BKN021 OVC055 M04/M06 A2993 RMK AO2 SNB1355 P0000 T10391061
KBGM 111353Z 27008KT 8SM SCT013 OVC055 M04/M06 A2992 RMK AO2 SNB13E31 SLP154 P0000 T10391061
KBGM 111253Z 25007KT 10SM OVC050 M04/M07 A2991 RMK AO2 SNB32E42 SLP149 P0000 T10441067
KBGM 111153Z 26008KT 10SM FEW026 OVC060 M05/M07 A2989 RMK AO2 SNB16E35 SLP145 P0000 60000 70001 T10501072 11033 21050 53011
KBGM 111053Z AUTO 25007KT 9SM SCT023 SCT028 OVC036 M05/M07 A2988 RMK AO2 SNE44 SLP139 P0000 T10501072
KBGM 111038Z AUTO 26006KT 5SM -SN BR OVC031 M05/M07 A2988 RMK AO2 P0000 T10501072
KBGM 111015Z AUTO 26010KT 2 1/2SM -SN OVC029 M04/M08 A2987 RMK AO2 P0000 T10391078
KBGM 111005Z AUTO 26009KT 7SM -SN OVC031 M04/M08 A2987 RMK AO2 P0000 T10391078
KBGM 110953Z AUTO 26009KT 6SM -SN BKN028 OVC032 M04/M08 A2987 RMK AO2 SNB34 SLP134 P0000 T10391078
KBGM 110903Z AUTO 26008KT 10SM OVC028 M04/M08 A2986 RMK AO2 T10391083
KBGM 110853Z AUTO 27009KT 10SM OVC030 M04/M08 A2986 RMK AO2 SLP132 T10391083 53005
KBGM 110753Z AUTO 25008KT 10SM BKN037 OVC065 M04/M08 A2985 RMK AO2 SLP129 T10391083
KBGM 110653Z AUTO 24007KT 10SM OVC070 M03/M09 A2985 RMK AO2 SLP127 T10331089
KBGM 110553Z AUTO 24007KT 10SM OVC070 M03/M09 A2984 RMK AO2 SLP126 T10331089 11028 21033 58002
KBGM 110453Z AUTO 25009KT 10SM SCT043 OVC070 M03/M09 A2986 RMK AO2 SLP130 T10331089 410111067
KBGM 110353Z 25010KT 10SM SCT044 OVC075 M03/M09 A2986 RMK AO2 SLP131 T10331089
KBGM 110253Z 25011G18KT 10SM FEW032 BKN060 OVC090 M03/M09 A2985 RMK AO2 SLP129 T10331089 51003